Cosco Nagoya — 3ESJ8 — position and weather

sailwx.info

Track history (hours):
 
Tides and Currents Weather Stations Pressure Air Temp Water Temp Dewpoint Dewpoint Depression Visibility Wind Speed Wind Dir Waves Ship Positions

Cosco Nagoya

Last reported at 2017-May-23 06:30 UTC. Time now 2017-May-23 15:03 UTC.
Position N 31°05' E 122°36'.

Length 260 m; draft 10.4 m.

Type: Cargo ship. MMSI: 370320000.

Date/timePositionNaut miles runAvg speedWind from/ knotsBaromVisibWave heightAir tempDewpointWater temp
2017-May-23 06:30N 31°05' E 122°36'713.1
2017-May-23 06:00N 31°06' E 122°28'5 9.9
2017-May-23 05:30N 31°06' E 122°22'612.3
2017-May-23 05:00N 31°08' E 122°15'612.4
2017-May-23 04:31N 31°11' E 122°10'713.2
2017-May-23 04:00N 31°14' E 122°03'611.9
2017-May-23 03:30N 31°15' E 121°56'713.2
2017-May-23 03:00N 31°17' E 121°48'713.7
2017-May-23 02:30N 31°20' E 121°41'510.5
2017-May-23 02:00N 31°23' E 121°36'1 2.0
2017-May-23 01:29N 31°23' E 121°34'0 0.0
2017-May-23 00:53N 31°23' E 121°34'0 0.1
2017-May-23 00:29N 31°23' E 121°34'0 0.1
2017-May-22 23:59N 31°23' E 121°34'0 0.0
2017-May-22 23:29N 31°23' E 121°34'0 0.0
2017-May-22 22:59N 31°23' E 121°34'0 0.0
2017-May-22 22:29N 31°23' E 121°34'0 0.0
2017-May-22 21:59N 31°23' E 121°34'0 0.0
2017-May-22 21:29N 31°23' E 121°34'0 0.0
2017-May-22 20:59N 31°23' E 121°34'0 0.0
2017-May-22 20:29N 31°23' E 121°34'0 0.0
2017-May-22 19:59N 31°23' E 121°34'0 0.0
2017-May-22 19:29N 31°23' E 121°34'0 0.0
2017-May-22 18:59N 31°23' E 121°34'0 0.0
2017-May-22 18:29N 31°23' E 121°34'0 0.0
2017-May-22 17:59N 31°23' E 121°34'0 0.0
2017-May-22 17:29N 31°23' E 121°34'0 0.0
2017-May-22 16:59N 31°23' E 121°34'0 0.0
2017-May-22 16:29N 31°23' E 121°34'0 0.0
2017-May-22 15:59N 31°23' E 121°34'0 0.0
2017-May-22 15:29N 31°23' E 121°34'0 0.0
2017-May-22 14:59N 31°23' E 121°34'0 0.0
2017-May-22 13:59N 31°23' E 121°34'0 0.7
2017-May-22 13:30N 31°23' E 121°34'4 8.2
2017-May-22 13:00N 31°21' E 121°39'510.6
2017-May-22 12:30N 31°19' E 121°44'510.9
2017-May-22 12:00N 31°17' E 121°50'5 9.7
2017-May-22 11:30N 31°16' E 121°56'5 9.3
2017-May-22 11:00N 31°15' E 122°01'510.5
2017-May-22 10:30N 31°13' E 122°07'510.1
2017-May-22 10:00N 31°10' E 122°12'4 8.5
2017-May-22 09:30N 31°08' E 122°16'4 8.0
2017-May-22 09:00N 31°06' E 122°20'26 1.0
2017-May-21 06:55N 31°09' E 122°50'0 0.2
2017-May-21 05:25N 31°09' E 122°51'0 0.0
2017-May-21 04:49N 31°09' E 122°51'0 0.0
2017-May-21 04:19N 31°09' E 122°51'0 0.0
2017-May-21 03:43N 31°09' E 122°51'5 1.8
2017-May-21 00:49N 31°10' E 122°57'3110.2
2017-May-20 21:48N 31°34' E 123°19'412.0
2017-May-20 21:28N 31°37' E 123°21'912.0
2017-May-20 20:44N 31°45' E 123°26'312.0
2017-May-20 20:30N 31°48' E 123°27'711.6
2017-May-20 19:54N 31°55' E 123°29'1512.0
2017-May-20 18:39N 32°10' E 123°29'412.4
2017-May-20 18:21N 32°13' E 123°29'512.7
2017-May-20 18:00N 32°18' E 123°28'5412.3
2017-May-20 13:36N 33°12' E 123°24'18611.3
2017-May-19 21:09N 35°46' E 121°19'212.4
2017-May-19 20:59N 35°48' E 121°17'612.4
2017-May-19 20:30N 35°52' E 121°12'40 1.8
2017-May-18 21:53N 36°01' E 120°23'615.3
2017-May-18 21:29N 35°60' E 120°31'917.9
2017-May-18 21:00N 35°58' E 120°41'3516.0
2017-May-18 18:48N 35°46' E 121°22'1917.1
2017-May-18 17:41N 35°32' E 121°38'317.0
2017-May-18 17:30N 35°30' E 121°41'917.2
2017-May-18 17:00N 35°23' E 121°48'817.0
2017-May-18 16:30N 35°17' E 121°55'917.1
2017-May-18 15:59N 35°10' E 122°02'817.0
2017-May-18 15:30N 35°04' E 122°09'917.1
2017-May-18 15:00N 34°58' E 122°16'917.2
2017-May-18 14:30N 34°52' E 122°23'1717.1
2017-May-18 13:30N 34°40' E 122°37'917.3
2017-May-18 13:00N 34°33' E 122°45'917.3
2017-May-18 12:30N 34°26' E 122°51'1017.5
2017-May-18 11:55N 34°19' E 123°00'717.2
2017-May-18 11:30N 34°14' E 123°06'917.0
2017-May-18 10:59N 34°08' E 123°14'816.9
2017-May-18 10:30N 34°01' E 123°19'917.1
2017-May-18 10:00N 33°53' E 123°22'917.4
2017-May-18 09:30N 33°44' E 123°21'917.6
2017-May-18 09:01N 33°36' E 123°22'917.5
2017-May-18 08:30N 33°27' E 123°23'815.4
2017-May-18 08:00N 33°19' E 123°23'812.9
2017-May-18 07:24N 33°11' E 123°24'513.4
2017-May-18 07:00N 33°06' E 123°25'713.5
2017-May-18 06:30N 32°60' E 123°25'713.4
2017-May-18 05:59N 32°53' E 123°26'613.0
2017-May-18 05:30N 32°46' E 123°26'613.0
2017-May-18 05:00N 32°40' E 123°26'612.7
2017-May-18 04:30N 32°34' E 123°27'612.7
2017-May-18 04:00N 32°27' E 123°27'612.6
2017-May-18 03:30N 32°21' E 123°28'612.5
2017-May-18 03:00N 32°15' E 123°29'712.5
2017-May-18 02:28N 32°08' E 123°30'612.8
2017-May-18 02:00N 32°02' E 123°30'613.0
2017-May-18 01:30N 31°56' E 123°30'612.8
2017-May-18 01:00N 31°49' E 123°32'612.7
2017-May-18 00:30N 31°43' E 123°33'612.9
2017-May-18 00:00N 31°37' E 123°33'713.0
2017-May-17 23:30N 31°30' E 123°34'612.8
2017-May-17 23:00N 31°24' E 123°34'713.3
2017-May-17 22:30N 31°17' E 123°33'713.3
2017-May-17 22:00N 31°10' E 123°33'713.4
2017-May-17 21:30N 31°04' E 123°33'713.3
2017-May-17 21:00N 30°57' E 123°34'713.6
2017-May-17 20:30N 30°50' E 123°34'713.9
2017-May-17 20:00N 30°43' E 123°34'713.7
2017-May-17 19:30N 30°37' E 123°35'713.5
2017-May-17 19:00N 30°30' E 123°35'1213.8
2017-May-17 18:10N 30°18' E 123°33'214.1
2017-May-17 18:00N 30°16' E 123°32'49212.9
2017-May-16 04:00N 22°45' E 119°54'713.0
2017-May-16 03:30N 22°39' E 119°53'713.5
2017-May-16 03:00N 22°33' E 119°49'713.5
2017-May-16 02:30N 22°27' E 119°45'  
Track history (hours):
 
Tides and Currents Weather Stations Pressure Air Temp Water Temp Dewpoint Dewpoint Depression Visibility Wind Speed Wind Dir Waves Ship Positions

Cosco Nagoya

Last reported at 2017-May-23 06:30 UTC. Time now 2017-May-23 15:03 UTC.
Position N 31°05' E 122°36'.

Length 260 m; draft 10.4 m.

Type: Cargo ship. MMSI: 370320000.

Date/timePositionNaut miles runAvg speedWind from/ knotsBaromVisibWave heightAir tempDewpointWater temp
2017-May-23 06:30N 31°05' E 122°36'713.1
2017-May-23 06:00N 31°06' E 122°28'5 9.9
2017-May-23 05:30N 31°06' E 122°22'612.3
2017-May-23 05:00N 31°08' E 122°15'612.4
2017-May-23 04:31N 31°11' E 122°10'713.2
2017-May-23 04:00N 31°14' E 122°03'611.9
2017-May-23 03:30N 31°15' E 121°56'713.2
2017-May-23 03:00N 31°17' E 121°48'713.7
2017-May-23 02:30N 31°20' E 121°41'510.5
2017-May-23 02:00N 31°23' E 121°36'1 2.0
2017-May-23 01:29N 31°23' E 121°34'0 0.0
2017-May-23 00:53N 31°23' E 121°34'0 0.1
2017-May-23 00:29N 31°23' E 121°34'0 0.1
2017-May-22 23:59N 31°23' E 121°34'0 0.0
2017-May-22 23:29N 31°23' E 121°34'0 0.0
2017-May-22 22:59N 31°23' E 121°34'0 0.0
2017-May-22 22:29N 31°23' E 121°34'0 0.0
2017-May-22 21:59N 31°23' E 121°34'0 0.0
2017-May-22 21:29N 31°23' E 121°34'0 0.0
2017-May-22 20:59N 31°23' E 121°34'0 0.0
2017-May-22 20:29N 31°23' E 121°34'0 0.0
2017-May-22 19:59N 31°23' E 121°34'0 0.0
2017-May-22 19:29N 31°23' E 121°34'0 0.0
2017-May-22 18:59N 31°23' E 121°34'0 0.0
2017-May-22 18:29N 31°23' E 121°34'0 0.0
2017-May-22 17:59N 31°23' E 121°34'0 0.0
2017-May-22 17:29N 31°23' E 121°34'0 0.0
2017-May-22 16:59N 31°23' E 121°34'0 0.0
2017-May-22 16:29N 31°23' E 121°34'0 0.0
2017-May-22 15:59N 31°23' E 121°34'0 0.0
2017-May-22 15:29N 31°23' E 121°34'0 0.0
2017-May-22 14:59N 31°23' E 121°34'0 0.0
2017-May-22 13:59N 31°23' E 121°34'0 0.7
2017-May-22 13:30N 31°23' E 121°34'4 8.2
2017-May-22 13:00N 31°21' E 121°39'510.6
2017-May-22 12:30N 31°19' E 121°44'510.9
2017-May-22 12:00N 31°17' E 121°50'5 9.7
2017-May-22 11:30N 31°16' E 121°56'5 9.3
2017-May-22 11:00N 31°15' E 122°01'510.5
2017-May-22 10:30N 31°13' E 122°07'510.1
2017-May-22 10:00N 31°10' E 122°12'4 8.5
2017-May-22 09:30N 31°08' E 122°16'4 8.0
2017-May-22 09:00N 31°06' E 122°20'26 1.0
2017-May-21 06:55N 31°09' E 122°50'0 0.2
2017-May-21 05:25N 31°09' E 122°51'0 0.0
2017-May-21 04:49N 31°09' E 122°51'0 0.0
2017-May-21 04:19N 31°09' E 122°51'0 0.0
2017-May-21 03:43N 31°09' E 122°51'5 1.8
2017-May-21 00:49N 31°10' E 122°57'3110.2
2017-May-20 21:48N 31°34' E 123°19'412.0
2017-May-20 21:28N 31°37' E 123°21'912.0
2017-May-20 20:44N 31°45' E 123°26'312.0
2017-May-20 20:30N 31°48' E 123°27'711.6
2017-May-20 19:54N 31°55' E 123°29'1512.0
2017-May-20 18:39N 32°10' E 123°29'412.4
2017-May-20 18:21N 32°13' E 123°29'512.7
2017-May-20 18:00N 32°18' E 123°28'5412.3
2017-May-20 13:36N 33°12' E 123°24'18611.3
2017-May-19 21:09N 35°46' E 121°19'212.4
2017-May-19 20:59N 35°48' E 121°17'612.4
2017-May-19 20:30N 35°52' E 121°12'40 1.8
2017-May-18 21:53N 36°01' E 120°23'615.3
2017-May-18 21:29N 35°60' E 120°31'917.9
2017-May-18 21:00N 35°58' E 120°41'3516.0
2017-May-18 18:48N 35°46' E 121°22'1917.1
2017-May-18 17:41N 35°32' E 121°38'317.0
2017-May-18 17:30N 35°30' E 121°41'917.2
2017-May-18 17:00N 35°23' E 121°48'817.0
2017-May-18 16:30N 35°17' E 121°55'917.1
2017-May-18 15:59N 35°10' E 122°02'817.0
2017-May-18 15:30N 35°04' E 122°09'917.1
2017-May-18 15:00N 34°58' E 122°16'917.2
2017-May-18 14:30N 34°52' E 122°23'1717.1
2017-May-18 13:30N 34°40' E 122°37'917.3
2017-May-18 13:00N 34°33' E 122°45'917.3
2017-May-18 12:30N 34°26' E 122°51'1017.5
2017-May-18 11:55N 34°19' E 123°00'717.2
2017-May-18 11:30N 34°14' E 123°06'917.0
2017-May-18 10:59N 34°08' E 123°14'816.9
2017-May-18 10:30N 34°01' E 123°19'917.1
2017-May-18 10:00N 33°53' E 123°22'917.4
2017-May-18 09:30N 33°44' E 123°21'917.6
2017-May-18 09:01N 33°36' E 123°22'917.5
2017-May-18 08:30N 33°27' E 123°23'815.4
2017-May-18 08:00N 33°19' E 123°23'812.9
2017-May-18 07:24N 33°11' E 123°24'513.4
2017-May-18 07:00N 33°06' E 123°25'713.5
2017-May-18 06:30N 32°60' E 123°25'713.4
2017-May-18 05:59N 32°53' E 123°26'613.0
2017-May-18 05:30N 32°46' E 123°26'613.0
2017-May-18 05:00N 32°40' E 123°26'612.7
2017-May-18 04:30N 32°34' E 123°27'612.7
2017-May-18 04:00N 32°27' E 123°27'612.6
2017-May-18 03:30N 32°21' E 123°28'612.5
2017-May-18 03:00N 32°15' E 123°29'712.5
2017-May-18 02:28N 32°08' E 123°30'612.8
2017-May-18 02:00N 32°02' E 123°30'613.0
2017-May-18 01:30N 31°56' E 123°30'612.8
2017-May-18 01:00N 31°49' E 123°32'612.7
2017-May-18 00:30N 31°43' E 123°33'612.9
2017-May-18 00:00N 31°37' E 123°33'713.0
2017-May-17 23:30N 31°30' E 123°34'612.8
2017-May-17 23:00N 31°24' E 123°34'713.3
2017-May-17 22:30N 31°17' E 123°33'713.3
2017-May-17 22:00N 31°10' E 123°33'713.4
2017-May-17 21:30N 31°04' E 123°33'713.3
2017-May-17 21:00N 30°57' E 123°34'713.6
2017-May-17 20:30N 30°50' E 123°34'713.9
2017-May-17 20:00N 30°43' E 123°34'713.7
2017-May-17 19:30N 30°37' E 123°35'713.5
2017-May-17 19:00N 30°30' E 123°35'1213.8
2017-May-17 18:10N 30°18' E 123°33'214.1
2017-May-17 18:00N 30°16' E 123°32'49212.9
2017-May-16 04:00N 22°45' E 119°54'713.0
2017-May-16 03:30N 22°39' E 119°53'713.5
2017-May-16 03:00N 22°33' E 119°49'713.5
2017-May-16 02:30N 22°27' E 119°45'  

Dump ship's entire track history